Flight Track Log - Related Links

Times and Time Zones

All times are in EDT time to prevent confusion due to time zone crossing. See the ASQ5941 flight status page for this flight to view local times or setup timezone preferences in your user account.

Time Position Orientation Groundspeed Altitude Reporting Facility
EDT Latitude Longitude Course Direction KTS MPH feet Rate Location/Type
Sun 05:19:00 PM 41.4408 -75.9648 304° West  Level FlightAware Approximate
Sun 05:20:00 PM 41.4957 -76.0553 315° West  Level FlightAware Approximate
Sun 05:20:07 PM 41.3936 -75.8622 352° North 292 336 8,000  Level New York Center
Sun 05:21:00 PM 41.5552 -76.1412 312° West  Level FlightAware Approximate
Sun 05:21:08 PM 41.4697 -75.8817 349° North 287 330 9,800  Level New York Center
Sun 05:22:00 PM 41.6109 -76.2315 307° West  Level FlightAware Approximate
Sun 05:22:06 PM 41.5311 -75.9531 319° Northwest 266 306 11,400  Level New York Center
Sun 05:23:00 PM 41.6639 -76.3250 307° West  Level FlightAware Approximate
Sun 05:23:07 PM 41.5856 -76.0458 308° West 286 329 12,000  Level New York Center
Sun 05:24:00 PM 41.7162 -76.4192 307° West  Level FlightAware Approximate
Sun 05:24:07 PM 41.6375 -76.1389 307° West 337 388 12,500  Level New York Center
Sun 05:25:07 PM 41.6908 -76.2486 303° West 356 410 13,400 939 Climbing New York Center
Sun 05:27:06 PM 41.7567 -76.4850 291° West 356 410 15,300 1,006 Climbing New York Center
Sun 05:28:06 PM 41.7978 -76.6247 292° West 361 415 16,400 984 Climbing New York Center
Sun 05:29:08 PM 41.8311 -76.7503 290° West 361 415 17,300 556 Climbing New York Center
Sun 05:30:48 PM 41.8950 -76.9733 291° West 368 423 17,900 413 Climbing Cleveland Center
Sun 05:31:48 PM 41.9325 -77.1108 290° West 381 438 18,400 550 Climbing Cleveland Center
Sun 05:32:48 PM 41.9678 -77.2483 289° West 387 445 19,000 550 Climbing Cleveland Center
Sun 05:33:48 PM 42.0053 -77.3892 290° West 397 457 19,500 500 Climbing Cleveland Center
Sun 05:34:48 PM 42.0444 -77.5297 291° West 403 464 20,000 550 Climbing Cleveland Center
Sun 05:35:48 PM 42.0817 -77.6733 289° West 403 464 20,600 550 Climbing Cleveland Center
Sun 05:36:48 PM 42.1206 -77.8200 290° West 403 464 21,100 550 Climbing Cleveland Center
Sun 05:37:48 PM 42.1594 -77.9642 290° West 403 464 21,700 550 Climbing Cleveland Center
Sun 05:38:48 PM 42.1961 -78.1083 289° West 403 464 22,200 500 Climbing Cleveland Center
Sun 05:39:48 PM 42.2344 -78.2528 290° West 403 464 22,700 550 Climbing Cleveland Center
Sun 05:40:48 PM 42.2728 -78.4000 289° West 403 464 23,300 550 Climbing Cleveland Center
Sun 05:41:48 PM 42.3089 -78.5475 288° West 403 464 23,800 350 Climbing Cleveland Center
Sun 05:42:48 PM 42.3469 -78.6953 289° West 408 470 24,000 100 Climbing Cleveland Center
Sun 05:43:48 PM 42.3847 -78.8458 289° West 418 481 24,000  Level Cleveland Center
Sun 05:44:48 PM 42.4222 -78.9997 288° West 423 487 24,000  Level Cleveland Center
Sun 05:45:48 PM 42.4617 -79.1533 289° West 428 493 24,000  Level Cleveland Center
Sun 05:46:48 PM 42.4950 -79.3103 286° West 433 498 24,000  Level Cleveland Center
Sun 05:47:48 PM 42.5028 -79.4764 274° West 443 510 24,000  Level Cleveland Center
Sun 05:48:48 PM 42.5106 -79.6425 274° West 443 510 24,000  Level Cleveland Center
Sun 05:49:48 PM 42.5222 -79.8114 275° West 443 510 24,000  Level Cleveland Center
Sun 05:50:48 PM 42.5422 -79.9942 279° West 449 517 24,000  Level Cleveland Center
Sun 05:51:48 PM 42.5636 -80.1603 280° West 449 517 24,000  Level Cleveland Center
Sun 05:52:48 PM 42.5828 -80.3236 279° West 444 511 24,000  Level Cleveland Center
Sun 05:53:48 PM 42.6061 -80.4872 281° West 444 511 24,000  Level Cleveland Center
Sun 05:54:48 PM 42.6247 -80.6508 279° West 444 511 24,000  Level Cleveland Center
Sun 05:55:48 PM 42.6456 -80.8147 280° West 444 511 24,000  Level Cleveland Center
Sun 05:56:48 PM 42.6658 -80.9783 280° West 442 509 24,000  Level Cleveland Center
Sun 05:57:48 PM 42.6861 -81.1481 279° West 447 514 24,000  Level Cleveland Center
Sun 05:58:48 PM 42.7039 -81.3122 278° West 447 514 24,000  Level Cleveland Center
Sun 05:59:48 PM 42.7236 -81.4761 279° West 447 514 24,000  Level Cleveland Center
Sun 06:00:48 PM 42.7411 -81.6236 279° West 447 514 24,000  Level Cleveland Center
Sun 06:01:48 PM 42.7600 -81.8047 278° West 447 514 24,000  Level Cleveland Center
Sun 06:02:48 PM 42.7792 -81.9664 279° West 447 514 24,000  Level Cleveland Center
Sun 06:03:48 PM 42.7978 -82.1339 279° West 447 514 24,000  Level Cleveland Center
Sun 06:04:48 PM 42.8164 -82.2956 279° West 447 514 24,000  Level Cleveland Center
Sun 06:05:48 PM 42.8347 -82.4631 279° West 447 514 24,000  Level Cleveland Center
Sun 06:06:48 PM 42.8528 -82.6250 279° West 447 514 24,000  Level Cleveland Center
Sun 06:07:48 PM 42.8703 -82.7956 278° West 452 520 24,000  Level Cleveland Center
Sun 06:08:48 PM 42.8858 -82.9578 278° West 447 514 24,000  Level Cleveland Center
Sun 06:09:48 PM 42.9033 -83.1228 278° West 447 514 24,000  Level Cleveland Center
Sun 06:10:48 PM 42.9203 -83.2908 278° West 447 514 24,000  Level Cleveland Center
Sun 06:11:48 PM 42.9372 -83.4533 278° West 447 514 24,000  Level Cleveland Center
Sun 06:12:48 PM 42.9539 -83.6186 278° West 442 509 24,000  Level Cleveland Center
Sun 06:13:48 PM 42.9639 -83.7864 275° West 442 509 24,000  Level Cleveland Center
Sun 06:14:48 PM 42.9467 -83.9500 262° West 442 509 24,000  Level Cleveland Center
Sun 06:15:48 PM 42.9314 -84.1139 263° West 437 503 24,000  Level Cleveland Center
Sun 06:16:32 PM 42.9214 -84.2089 262° West 437 503 24,000  Level Chicago Center
Sun 06:17:34 PM 42.9053 -84.3728 262° West 437 503 24,000  Level Chicago Center
Sun 06:18:36 PM 42.8856 -84.5694 262° West 438 504 24,000  Level Chicago Center
Sun 06:19:38 PM 42.8683 -84.7328 262° West 435 501 24,000  Level Chicago Center
Sun 06:20:40 PM 42.8525 -84.8967 263° West 437 503 24,000  Level Chicago Center
Sun 06:21:42 PM 42.8347 -85.0594 262° West 436 502 24,000  Level Chicago Center
Sun 06:22:45 PM 42.8161 -85.2233 261° West 437 503 24,000  Level Chicago Center
Sun 06:23:47 PM 42.7992 -85.3833 262° West 432 497 24,000  Level Chicago Center
Sun 06:24:49 PM 42.7744 -85.5678 260° West 417 480 24,000  Level Chicago Center
Sun 06:25:51 PM 42.7472 -85.7158 256° West 405 466 24,000 -290 Level Chicago Center
Sun 06:26:53 PM 42.7200 -85.8606 256° West 397 457 23,400 -1,113 Descending Chicago Center
Sun 06:27:55 PM 42.6944 -86.0078 257° West 397 457 21,700 -1,548 Descending Chicago Center
Sun 06:28:57 PM 42.6689 -86.1469 256° West 383 441 20,200 -823 Descending Chicago Center
Sun 06:29:59 PM 42.6444 -86.2797 256° West 364 419 20,000 -145 Descending Chicago Center
Sun 06:31:01 PM 42.6194 -86.4106 255° West 361 415 19,900 -484 Descending Chicago Center
Sun 06:32:03 PM 42.5944 -86.5364 255° West 344 396 19,000 -919 Descending Chicago Center
Sun 06:33:05 PM 42.5675 -86.6817 256° West 334 384 18,000 -774 Descending Chicago Center
Sun 06:34:07 PM 42.5444 -86.7883 254° West 328 377 17,400 -581 Descending Chicago Center
Sun 06:35:09 PM 42.5056 -86.9317 250° West 343 395 16,800 -1,440 Descending Chicago Center
Sun 06:36:12 PM 42.4708 -87.0514 249° West 376 433 14,400 -2,640 Descending Chicago Center
Sun 06:37:14 PM 42.4356 -87.1811 250° West 369 425 11,300 -2,129 Descending Chicago Center
Sun 06:38:16 PM 42.4019 -87.3031 250° West 352 405 10,000 -677 Descending Chicago Center
Sun 06:39:18 PM 42.3672 -87.4283 249° West 334 384 9,900 -919 Descending Chicago Center
Sun 06:40:20 PM 42.3342 -87.5422 249° West 276 318 8,100 -1,403 Descending Chicago Center
Sun 06:41:22 PM 42.2736 -87.6036 217° Southwest 271 312 7,000 -532 Descending Chicago Center
Sun 06:42:24 PM 42.2219 -87.6594 219° Southwest 243 280 7,000 -48 Level Chicago Center
Sun 06:43:26 PM 42.2144 -87.7428 263° West 236 272 6,900 -48 Descending Chicago Center
Sun 06:44:28 PM 42.2139 -87.8311 270° West 238 274 6,900 48 Level Chicago Center
Sun 06:45:30 PM 42.2136 -87.9194 270° West 204 235 7,000  Climbing Chicago Center
Sun 06:46:32 PM 42.2328 -87.9883 291° West 202 232 6,900  Descending Chicago Center
Sun 06:47:34 PM 42.2617 -88.0519 302° West 201 231 7,000 48 Climbing Chicago Center
Sun 06:48:37 PM 42.2989 -88.1111 310° West 206 237 7,000 -240 Level Chicago Center
Sun 06:49:39 PM 42.2750 -88.1664 240° Southwest 199 229 6,500 -823 Descending Chicago Center
Sun 06:50:41 PM 42.2142 -88.1656 179° South 194 223 5,300 -774 Descending Chicago Center
Sun 06:51:43 PM 42.1664 -88.1336 154° Southeast 192 221 4,900 -532 Descending Chicago Center
Sun 06:52:45 PM 42.1278 -88.0908 141° Southeast 181 208 4,200 -726 Descending Chicago Center
Sun 06:53:47 PM 42.0878 -88.0450 140° Southeast 188 216 3,400 -939 Descending Chicago Center
Sun 06:54:40 PM 42.0500 -88.0000 138° Southeast 172 198 2,400 -1,121 Descending Chicago TRACON
Sun 06:55:34 PM 42.0167 -87.9667 143° Southeast 140 161 1,400 -1,111 Descending Chicago TRACON

Login

Don't have an account? Register now (free) for customized features, flight alerts, and more!